Time;durP1;ratioP1;P1;durP2;ratioP2;P2;SDS_P1;SDS_P2;PMS_P1;PMS_P2;Temp;Humidity;BMP_temperature;BMP_pressure;BME280_temperature;BME280_humidity;BME280_pressure;Samples;Min_cycle;Max_cycle;Signal;HPM_P1;HPM_P2
2023/01/01 00:01:20;;;;;;;14.25;3.30;;;;;;;;;;5088349;28;20054;-57
2023/01/01 00:03:50;;;;;;;12.10;3.05;;;;;;;;;;5090077;28;20048;-57
2023/01/01 00:06:16;;;;;;;14.57;4.47;;;;;;;;;;5092305;28;20043;-57
2023/01/01 00:08:43;;;;;;;16.98;5.18;;;;;;;;;;5092222;28;20488;-57
2023/01/01 00:11:09;;;;;;;20.83;4.00;;;;;;;;;;5090934;28;20054;-58
2023/01/01 00:13:37;;;;;;;16.15;3.65;;;;;;;;;;5091690;28;20483;-57
2023/01/01 00:16:07;;;;;;;15.23;4.63;;;;;;;;;;5091649;28;20052;-58
2023/01/01 00:18:34;;;;;;;19.05;4.30;;;;;;;;;;5091890;28;20109;-57
2023/01/01 00:21:04;;;;;;;14.77;3.13;;;;;;;;;;5091795;28;20050;-57
2023/01/01 00:23:31;;;;;;;15.13;4.00;;;;;;;;;;5091157;28;20050;-57
2023/01/01 00:25:57;;;;;;;19.85;5.00;;;;;;;;;;5090723;28;20578;-58
2023/01/01 00:28:24;;;;;;;20.48;4.25;;;;;;;;;;5089260;28;20044;-58
2023/01/01 00:30:50;;;;;;;20.08;3.80;;;;;;;;;;5089130;28;20052;-58
2023/01/01 00:33:16;;;;;;;13.82;3.00;;;;;;;;;;5090830;28;20040;-57
2023/01/01 00:35:43;;;;;;;14.95;2.80;;;;;;;;;;5089877;28;20048;-58
2023/01/01 00:38:09;;;;;;;16.33;2.85;;;;;;;;;;5089523;28;20048;-58
2023/01/01 00:40:35;;;;;;;14.63;2.30;;;;;;;;;;5091135;28;20048;-58
2023/01/01 00:43:02;;;;;;;19.83;3.72;;;;;;;;;;5091524;28;20044;-57
2023/01/01 00:45:28;;;;;;;14.23;2.83;;;;;;;;;;5088903;28;20051;-58
2023/01/01 00:47:54;;;;;;;19.23;3.28;;;;;;;;;;5088648;28;20055;-58
2023/01/01 00:50:21;;;;;;;13.90;3.38;;;;;;;;;;5091508;28;20072;-58
2023/01/01 00:52:48;;;;;;;22.00;4.40;;;;;;;;;;5091857;28;20055;-57
2023/01/01 00:55:14;;;;;;;22.10;4.15;;;;;;;;;;5091755;28;20048;-57
2023/01/01 00:57:41;;;;;;;18.17;3.75;;;;;;;;;;5086289;28;20048;-58
2023/01/01 01:00:08;;;;;;;18.52;4.40;;;;;;;;;;5090864;28;20048;-57
2023/01/01 01:02:34;;;;;;;22.23;3.35;;;;;;;;;;5090507;28;20075;-58
2023/01/01 01:05:02;;;;;;;17.90;2.53;;;;;;;;;;5090904;28;20040;-58
2023/01/01 01:07:32;;;;;;;17.35;2.83;;;;;;;;;;5091373;28;20085;-57
2023/01/01 01:09:58;;;;;;;20.13;2.40;;;;;;;;;;5090076;28;20044;-58
2023/01/01 01:12:24;;;;;;;18.58;2.65;;;;;;;;;;5091224;28;20063;-58
2023/01/01 01:14:51;;;;;;;17.27;2.58;;;;;;;;;;5090815;28;20058;-58
2023/01/01 01:17:17;;;;;;;18.98;2.53;;;;;;;;;;5091676;28;20094;-58
2023/01/01 01:19:43;;;;;;;16.50;2.38;;;;;;;;;;5091575;28;20048;-58
2023/01/01 01:22:10;;;;;;;18.48;2.60;;;;;;;;;;5091446;28;20060;-58
2023/01/01 01:24:36;;;;;;;25.27;3.53;;;;;;;;;;5091624;28;20418;-57
2023/01/01 01:27:02;;;;;;;18.92;3.08;;;;;;;;;;5091943;28;20390;-58
2023/01/01 01:29:29;;;;;;;19.48;3.20;;;;;;;;;;5091694;28;20426;-58
2023/01/01 01:31:55;;;;;;;18.05;2.58;;;;;;;;;;5091897;28;20406;-58
2023/01/01 01:34:22;;;;;;;19.67;3.22;;;;;;;;;;5091726;28;20048;-58
2023/01/01 01:36:53;;;;;;;24.85;3.92;;;;;;;;;;5091660;28;20117;-58
2023/01/01 01:39:20;;;;;;;16.58;2.85;;;;;;;;;;5091443;28;20044;-58
2023/01/01 01:41:46;;;;;;;18.60;2.67;;;;;;;;;;5091844;28;20056;-58
2023/01/01 01:44:31;;;;;;;18.70;3.13;;;;;;;;;;5091771;28;20426;-58
2023/01/01 01:46:58;;;;;;;16.85;2.85;;;;;;;;;;5091548;28;20044;-58
2023/01/01 01:49:29;;;;;;;19.43;3.33;;;;;;;;;;5091501;28;20055;-58
2023/01/01 01:51:57;;;;;;;23.35;2.92;;;;;;;;;;5091486;28;20217;-58
2023/01/01 01:54:26;;;;;;;18.70;3.45;;;;;;;;;;5091720;28;20054;-58
2023/01/01 01:56:55;;;;;;;20.25;2.75;;;;;;;;;;5091434;28;20563;-58
2023/01/01 01:59:24;;;;;;;16.90;3.33;;;;;;;;;;5091390;28;20047;-58
2023/01/01 02:01:50;;;;;;;16.80;2.67;;;;;;;;;;5091665;28;20044;-58
2023/01/01 02:04:17;;;;;;;25.63;3.37;;;;;;;;;;5091222;28;20043;-58
2023/01/01 02:06:44;;;;;;;21.88;3.42;;;;;;;;;;5091610;28;20047;-58
2023/01/01 02:09:10;;;;;;;19.48;2.65;;;;;;;;;;5091297;28;20044;-58
2023/01/01 02:11:36;;;;;;;15.65;2.83;;;;;;;;;;5091211;28;20127;-58
2023/01/01 02:14:03;;;;;;;18.45;3.30;;;;;;;;;;5092217;28;20058;-58
2023/01/01 02:16:32;;;;;;;18.48;2.95;;;;;;;;;;5095083;28;20050;-58
2023/01/01 02:19:04;;;;;;;26.77;3.72;;;;;;;;;;5095187;28;20068;-58
2023/01/01 02:21:40;;;;;;;21.45;3.40;;;;;;;;;;5095240;28;20048;-58
2023/01/01 02:24:08;;;;;;;19.58;2.92;;;;;;;;;;5094950;28;20496;-58
2023/01/01 02:26:44;;;;;;;18.20;3.45;;;;;;;;;;5094637;28;20083;-58
2023/01/01 02:29:24;;;;;;;22.48;3.42;;;;;;;;;;5094879;28;20063;-58
2023/01/01 02:31:58;;;;;;;24.17;3.10;;;;;;;;;;5094775;28;20054;-58
2023/01/01 02:34:27;;;;;;;26.75;3.60;;;;;;;;;;5094817;28;20494;-57
2023/01/01 02:36:54;;;;;;;21.08;3.47;;;;;;;;;;5094614;28;20047;-58
2023/01/01 02:39:21;;;;;;;25.67;3.63;;;;;;;;;;5094851;28;20048;-58
2023/01/01 02:41:51;;;;;;;18.00;2.92;;;;;;;;;;5094595;28;20502;-58
2023/01/01 02:44:18;;;;;;;24.42;3.08;;;;;;;;;;5094519;28;20079;-58
2023/01/01 02:46:44;;;;;;;22.05;3.25;;;;;;;;;;5094757;28;20512;-58
2023/01/01 02:49:11;;;;;;;22.13;4.28;;;;;;;;;;5094459;28;20048;-58
2023/01/01 02:51:56;;;;;;;27.60;3.78;;;;;;;;;;5094335;28;20044;-58
2023/01/01 02:54:34;;;;;;;24.48;3.75;;;;;;;;;;5094252;28;20044;-58
2023/01/01 02:57:06;;;;;;;23.67;3.47;;;;;;;;;;5094650;28;20058;-58
2023/01/01 03:02:23;;;;;;;25.50;3.25;;;;;;;;;;5094184;28;20048;-57
2023/01/01 03:05:05;;;;;;;26.65;3.83;;;;;;;;;;5094258;28;20407;-58
2023/01/01 03:07:49;;;;;;;28.20;3.58;;;;;;;;;;5094247;28;20422;-58
2023/01/01 03:10:27;;;;;;;27.63;3.72;;;;;;;;;;5094407;28;20056;-58
2023/01/01 03:12:56;;;;;;;24.02;3.55;;;;;;;;;;5093966;28;20131;-58
2023/01/01 03:15:35;;;;;;;20.63;3.08;;;;;;;;;;5094197;28;20043;-58
2023/01/01 03:18:12;;;;;;;21.83;3.38;;;;;;;;;;5094057;28;20055;-58
2023/01/01 03:20:41;;;;;;;15.82;2.60;;;;;;;;;;5093867;28;20037;-58
2023/01/01 03:23:10;;;;;;;19.30;3.63;;;;;;;;;;5094152;28;20083;-58
2023/01/01 03:25:46;;;;;;;22.13;3.17;;;;;;;;;;5093316;28;20307;-58
2023/01/01 03:28:17;;;;;;;20.23;3.03;;;;;;;;;;5094068;28;20044;-58
2023/01/01 03:30:45;;;;;;;20.65;3.10;;;;;;;;;;5094007;28;20052;-58
2023/01/01 03:33:16;;;;;;;18.88;3.75;;;;;;;;;;5093764;28;20052;-58
2023/01/01 03:36:12;;;;;;;20.65;3.42;;;;;;;;;;5093649;28;20040;-58
2023/01/01 03:38:38;;;;;;;16.60;2.50;;;;;;;;;;5066204;28;20055;-58
2023/01/01 03:41:16;;;;;;;21.90;3.20;;;;;;;;;;5093414;28;20054;-58
2023/01/01 03:43:48;;;;;;;12.65;2.33;;;;;;;;;;5093667;28;20048;-58
2023/01/01 03:46:16;;;;;;;10.38;2.10;;;;;;;;;;5092118;28;20048;-58
2023/01/01 03:48:59;;;;;;;14.65;2.35;;;;;;;;;;5093577;28;20052;-58
2023/01/01 03:51:29;;;;;;;9.90;1.40;;;;;;;;;;5093472;28;20058;-58
2023/01/01 03:53:58;;;;;;;3.53;0.77;;;;;;;;;;5093463;28;20406;-58
2023/01/01 03:56:34;;;;;;;5.95;0.90;;;;;;;;;;5093429;28;20079;-58
2023/01/01 03:59:06;;;;;;;2.13;0.40;;;;;;;;;;5093069;28;20487;-58
2023/01/01 04:01:36;;;;;;;4.20;0.40;;;;;;;;;;5093301;28;20097;-58
2023/01/01 04:04:03;;;;;;;4.10;0.70;;;;;;;;;;5092932;28;20503;-58
2023/01/01 04:06:31;;;;;;;3.80;0.43;;;;;;;;;;5108774;28;20122;-57
2023/01/01 04:08:59;;;;;;;4.30;0.88;;;;;;;;;;5092950;28;20058;-58
2023/01/01 04:14:11;;;;;;;4.07;0.52;;;;;;;;;;5092936;28;20048;-58
2023/01/01 04:16:38;;;;;;;6.10;0.63;;;;;;;;;;5092698;28;20056;-58
2023/01/01 04:19:07;;;;;;;3.30;0.30;;;;;;;;;;5092892;28;20054;-58
2023/01/01 04:21:34;;;;;;;2.70;0.40;;;;;;;;;;5092851;28;20036;-58
2023/01/01 04:24:00;;;;;;;1.13;0.20;;;;;;;;;;5092871;28;20044;-58
2023/01/01 04:26:26;;;;;;;4.28;0.30;;;;;;;;;;5092285;28;20083;-58
2023/01/01 04:28:53;;;;;;;3.63;0.30;;;;;;;;;;5092628;28;20044;-58
2023/01/01 04:31:19;;;;;;;3.15;0.70;;;;;;;;;;5092526;28;20048;-58
2023/01/01 04:33:45;;;;;;;4.30;0.75;;;;;;;;;;5092441;28;20054;-58
2023/01/01 04:36:12;;;;;;;4.05;1.17;;;;;;;;;;5091965;28;20051;-59
2023/01/01 04:38:38;;;;;;;5.07;1.10;;;;;;;;;;5092355;28;20052;-58
2023/01/01 04:41:05;;;;;;;5.38;1.08;;;;;;;;;;5092232;28;20538;-58
2023/01/01 04:43:31;;;;;;;4.95;1.00;;;;;;;;;;5092489;28;20044;-59
2023/01/01 04:45:59;;;;;;;4.32;0.93;;;;;;;;;;5092336;28;20085;-58
2023/01/01 04:48:26;;;;;;;;;;;;;;;;;;5092638;28;20510;-58
2023/01/01 04:50:53;;;;;;;4.53;0.75;;;;;;;;;;5092148;28;19983;-59
2023/01/01 04:53:19;;;;;;;9.05;1.33;;;;;;;;;;5092122;28;20048;-58
2023/01/01 04:55:45;;;;;;;8.82;0.93;;;;;;;;;;5091971;28;20091;-58
2023/01/01 04:58:12;;;;;;;9.85;1.88;;;;;;;;;;5092315;28;20054;-58
2023/01/01 05:00:38;;;;;;;13.77;1.58;;;;;;;;;;5092123;28;20040;-58
2023/01/01 05:03:04;;;;;;;13.27;2.00;;;;;;;;;;5092286;28;20052;-58
2023/01/01 05:05:31;;;;;;;16.27;2.55;;;;;;;;;;5091860;28;20121;-58
2023/01/01 05:07:57;;;;;;;13.38;1.90;;;;;;;;;;5092252;28;20047;-58
2023/01/01 05:10:23;;;;;;;13.02;1.90;;;;;;;;;;5092040;28;20055;-58
2023/01/01 05:12:50;;;;;;;12.60;1.55;;;;;;;;;;5091891;28;20051;-58
2023/01/01 05:15:16;;;;;;;15.82;1.73;;;;;;;;;;5092096;28;20048;-58
2023/01/01 05:17:42;;;;;;;17.00;2.33;;;;;;;;;;5091843;28;20040;-58
2023/01/01 05:20:09;;;;;;;19.92;2.67;;;;;;;;;;5091828;28;20054;-58
2023/01/01 05:22:36;;;;;;;19.73;2.97;;;;;;;;;;5091901;28;20050;-58
2023/01/01 05:25:02;;;;;;;15.23;2.55;;;;;;;;;;5091587;28;20495;-58
2023/01/01 05:27:29;;;;;;;18.48;2.42;;;;;;;;;;5091847;28;20048;-58
2023/01/01 05:29:55;;;;;;;22.30;3.17;;;;;;;;;;5091740;28;20048;-58
2023/01/01 05:32:21;;;;;;;18.92;2.67;;;;;;;;;;5091850;28;20062;-58
2023/01/01 05:34:48;;;;;;;20.40;2.85;;;;;;;;;;5091549;28;20102;-58
2023/01/01 05:37:15;;;;;;;31.67;3.38;;;;;;;;;;5091849;28;20402;-58
2023/01/01 05:39:41;;;;;;;22.55;3.47;;;;;;;;;;5091733;28;20404;-58
2023/01/01 05:42:07;;;;;;;30.02;3.35;;;;;;;;;;5091481;28;20581;-59
2023/01/01 05:44:34;;;;;;;27.55;4.07;;;;;;;;;;5091464;28;20044;-58
2023/01/01 05:47:00;;;;;;;42.45;4.50;;;;;;;;;;5091595;28;20385;-58
2023/01/01 05:49:27;;;;;;;28.42;4.05;;;;;;;;;;5094926;28;20056;-57
2023/01/01 05:51:53;;;;;;;52.40;5.75;;;;;;;;;;5095521;28;20043;-57
2023/01/01 05:54:20;;;;;;;41.10;5.07;;;;;;;;;;5095845;28;20052;-57
2023/01/01 05:56:46;;;;;;;42.97;4.47;;;;;;;;;;5095880;28;20054;-56
2023/01/01 05:59:12;;;;;;;37.00;5.03;;;;;;;;;;5095489;28;20048;-57
2023/01/01 06:01:39;;;;;;;37.60;5.78;;;;;;;;;;5095447;28;20059;-57
2023/01/01 06:04:11;;;;;;;40.38;4.65;;;;;;;;;;5095629;28;20062;-58
2023/01/01 06:06:37;;;;;;;37.17;5.30;;;;;;;;;;5095588;28;20075;-57
2023/01/01 06:09:04;;;;;;;33.55;4.53;;;;;;;;;;5095482;28;20127;-57
2023/01/01 06:11:31;;;;;;;35.92;4.80;;;;;;;;;;5094253;28;20058;-57
2023/01/01 06:13:58;;;;;;;30.05;3.97;;;;;;;;;;5095185;28;20465;-57
2023/01/01 06:16:25;;;;;;;26.97;4.13;;;;;;;;;;5095344;28;20159;-57
2023/01/01 06:18:52;;;;;;;37.72;4.90;;;;;;;;;;5095364;28;20136;-58
2023/01/01 06:21:19;;;;;;;39.78;5.00;;;;;;;;;;5094991;28;20048;-56
2023/01/01 06:23:46;;;;;;;36.40;4.70;;;;;;;;;;5095309;28;20044;-57
2023/01/01 06:26:16;;;;;;;35.83;4.15;;;;;;;;;;5094611;28;20040;-58
2023/01/01 06:28:43;;;;;;;34.45;4.78;;;;;;;;;;5094946;28;20051;-57
2023/01/01 06:31:11;;;;;;;29.88;4.32;;;;;;;;;;5094760;28;20043;-57
2023/01/01 06:33:38;;;;;;;;;;;;;;;;;;5095533;28;20066;-57
2023/01/01 06:36:05;;;;;;;31.73;5.43;;;;;;;;;;5094716;28;19926;-58
2023/01/01 06:38:33;;;;;;;28.50;3.97;;;;;;;;;;5094713;28;20044;-58
2023/01/01 06:41:01;;;;;;;24.75;3.38;;;;;;;;;;5094572;28;20059;-58
2023/01/01 06:43:27;;;;;;;;;;;;;;;;;;5094971;28;20044;-58
2023/01/01 06:45:59;;;;;;;26.77;4.03;;;;;;;;;;5094594;28;19924;-57
2023/01/01 06:48:29;;;;;;;31.52;4.07;;;;;;;;;;5094573;28;20048;-57
2023/01/01 06:50:56;;;;;;;26.67;4.45;;;;;;;;;;5094464;28;20478;-57
2023/01/01 06:53:25;;;;;;;19.65;3.28;;;;;;;;;;5094647;28;20052;-57
2023/01/01 06:55:52;;;;;;;24.48;3.88;;;;;;;;;;5094351;28;20056;-57
2023/01/01 06:58:22;;;;;;;23.70;2.75;;;;;;;;;;5094477;28;20056;-58
2023/01/01 07:00:49;;;;;;;19.58;3.00;;;;;;;;;;5093731;28;20048;-57
2023/01/01 07:03:15;;;;;;;26.75;3.22;;;;;;;;;;5094492;28;20054;-57
2023/01/01 07:05:42;;;;;;;15.63;3.08;;;;;;;;;;5094484;28;20070;-57
2023/01/01 07:08:08;;;;;;;16.15;2.88;;;;;;;;;;5094180;28;20058;-57
2023/01/01 07:10:35;;;;;;;23.80;3.38;;;;;;;;;;5094017;28;20043;-57
2023/01/01 07:13:01;;;;;;;20.42;3.92;;;;;;;;;;5094301;28;20056;-57
2023/01/01 07:15:28;;;;;;;26.55;4.13;;;;;;;;;;5093915;28;20558;-57
2023/01/01 07:17:54;;;;;;;28.73;3.83;;;;;;;;;;5094131;28;20048;-57
2023/01/01 07:20:21;;;;;;;20.20;2.83;;;;;;;;;;5093698;28;20506;-57
2023/01/01 07:22:47;;;;;;;23.58;3.40;;;;;;;;;;5093851;28;20139;-57
2023/01/01 07:25:14;;;;;;;21.48;3.72;;;;;;;;;;5093519;28;20054;-57
2023/01/01 07:27:41;;;;;;;27.30;3.85;;;;;;;;;;5094046;28;20054;-57
2023/01/01 07:30:08;;;;;;;24.00;3.83;;;;;;;;;;5093916;28;20048;-58
2023/01/01 07:32:34;;;;;;;26.10;5.30;;;;;;;;;;5094272;28;20097;-57
2023/01/01 07:35:01;;;;;;;28.33;4.40;;;;;;;;;;5093837;28;20280;-57
2023/01/01 07:37:27;;;;;;;29.65;4.60;;;;;;;;;;5093592;28;20079;-57
2023/01/01 07:39:53;;;;;;;24.45;3.90;;;;;;;;;;5093721;28;20054;-57
2023/01/01 07:42:20;;;;;;;27.95;3.38;;;;;;;;;;5093623;28;20048;-57
2023/01/01 07:44:46;;;;;;;25.63;4.03;;;;;;;;;;5093495;28;20052;-58
2023/01/01 07:47:25;;;;;;;18.45;3.13;;;;;;;;;;5093624;28;20058;-57
2023/01/01 07:49:52;;;;;;;22.05;3.17;;;;;;;;;;5093563;28;20059;-57
2023/01/01 07:52:18;;;;;;;21.98;3.38;;;;;;;;;;5093198;28;20583;-57
2023/01/01 07:54:45;;;;;;;24.70;3.67;;;;;;;;;;5093489;28;20207;-58
2023/01/01 07:57:11;;;;;;;24.02;3.15;;;;;;;;;;5093515;28;20470;-57
2023/01/01 07:59:38;;;;;;;26.63;3.95;;;;;;;;;;5093298;28;20130;-58
2023/01/01 08:02:04;;;;;;;25.30;4.00;;;;;;;;;;5092748;28;20040;-58
2023/01/01 08:04:30;;;;;;;35.90;4.03;;;;;;;;;;5077516;28;20097;-57
2023/01/01 08:06:57;;;;;;;29.73;3.67;;;;;;;;;;5093174;28;20052;-58
2023/01/01 08:09:23;;;;;;;30.60;3.70;;;;;;;;;;5092834;28;20491;-58
2023/01/01 08:11:52;;;;;;;30.17;3.72;;;;;;;;;;5091898;28;20517;-57
2023/01/01 08:14:18;;;;;;;26.27;4.07;;;;;;;;;;5093033;28;20138;-58
2023/01/01 08:16:45;;;;;;;28.73;3.60;;;;;;;;;;5093118;28;20047;-58
2023/01/01 08:19:11;;;;;;;35.53;4.43;;;;;;;;;;5092906;28;20063;-57
2023/01/01 08:21:37;;;;;;;35.72;4.93;;;;;;;;;;5092948;28;20067;-57
2023/01/01 08:24:04;;;;;;;22.33;3.30;;;;;;;;;;5092865;28;20048;-57
2023/01/01 08:26:31;;;;;;;27.77;4.22;;;;;;;;;;5092464;28;20054;-58
2023/01/01 08:28:58;;;;;;;27.52;4.60;;;;;;;;;;5092790;28;20048;-58
2023/01/01 08:31:24;;;;;;;30.75;4.55;;;;;;;;;;5092806;28;20377;-57
2023/01/01 08:33:51;;;;;;;30.38;4.70;;;;;;;;;;5092507;28;20081;-57
2023/01/01 08:36:19;;;;;;;32.63;4.72;;;;;;;;;;5092631;28;20048;-58
2023/01/01 08:38:45;;;;;;;28.58;4.80;;;;;;;;;;5092159;28;20087;-58
2023/01/01 08:41:12;;;;;;;29.20;5.22;;;;;;;;;;5092265;28;20048;-58
2023/01/01 08:43:38;;;;;;;26.45;4.80;;;;;;;;;;5092317;28;20052;-58
2023/01/01 08:46:04;;;;;;;22.70;3.78;;;;;;;;;;5092258;28;20044;-58
2023/01/01 08:48:31;;;;;;;28.58;3.72;;;;;;;;;;5091893;28;20066;-57
2023/01/01 08:50:59;;;;;;;40.70;6.13;;;;;;;;;;5092126;28;20058;-58
2023/01/01 08:53:25;;;;;;;;;;;;;;;;;;5092813;28;20112;-58
2023/01/01 08:56:02;;;;;;;34.55;4.72;;;;;;;;;;5092263;28;19924;-58
2023/01/01 08:58:29;;;;;;;30.73;4.80;;;;;;;;;;5092263;28;20102;-58
2023/01/01 09:00:56;;;;;;;30.40;4.28;;;;;;;;;;5091857;28;20048;-58
2023/01/01 09:03:22;;;;;;;29.98;4.93;;;;;;;;;;5092331;28;20126;-58
2023/01/01 09:05:48;;;;;;;35.97;4.93;;;;;;;;;;5092291;28;20051;-58
2023/01/01 09:08:15;;;;;;;33.65;4.90;;;;;;;;;;5091881;28;20051;-58
2023/01/01 09:10:42;;;;;;;35.20;5.18;;;;;;;;;;5092210;28;20051;-58
2023/01/01 09:13:09;;;;;;;32.90;5.38;;;;;;;;;;5091883;28;20046;-58
2023/01/01 09:15:36;;;;;;;28.25;4.70;;;;;;;;;;5091875;28;20052;-57
2023/01/01 09:18:02;;;;;;;30.95;4.82;;;;;;;;;;5091623;28;20475;-57
2023/01/01 09:20:28;;;;;;;32.15;5.57;;;;;;;;;;5091887;28;20048;-58
2023/01/01 09:22:55;;;;;;;29.85;4.97;;;;;;;;;;5091411;28;20043;-58
2023/01/01 09:25:29;;;;;;;30.73;4.70;;;;;;;;;;5091630;28;20060;-58
2023/01/01 09:27:59;;;;;;;31.33;4.80;;;;;;;;;;5091909;28;20123;-57
2023/01/01 09:30:26;;;;;;;37.00;5.30;;;;;;;;;;5091709;28;20052;-58
2023/01/01 09:32:52;;;;;;;32.13;4.47;;;;;;;;;;5091878;28;20052;-57
2023/01/01 09:35:19;;;;;;;38.28;5.57;;;;;;;;;;5091605;28;20052;-58
2023/01/01 09:37:45;;;;;;;34.60;5.20;;;;;;;;;;5091530;28;20500;-58
2023/01/01 09:40:27;;;;;;;32.47;5.50;;;;;;;;;;5091535;28;20058;-58
2023/01/01 09:43:05;;;;;;;29.02;5.20;;;;;;;;;;5091722;28;20050;-58
2023/01/01 09:45:36;;;;;;;35.28;5.65;;;;;;;;;;5091871;28;20127;-58
2023/01/01 09:48:10;;;;;;;32.08;5.20;;;;;;;;;;5091808;28;20074;-57
2023/01/01 09:50:41;;;;;;;35.88;4.55;;;;;;;;;;5091555;28;20414;-57
2023/01/01 09:53:16;;;;;;;32.08;5.25;;;;;;;;;;5091603;28;20050;-57
2023/01/01 09:55:52;;;;;;;28.65;5.00;;;;;;;;;;5091671;28;20047;-57
2023/01/01 09:58:22;;;;;;;24.95;4.93;;;;;;;;;;5091656;28;20144;-57
2023/01/01 10:00:51;;;;;;;33.35;5.55;;;;;;;;;;5091721;28;20048;-57
2023/01/01 10:03:23;;;;;;;28.00;5.15;;;;;;;;;;5091299;28;20044;-57
2023/01/01 10:05:53;;;;;;;26.05;4.07;;;;;;;;;;5091660;28;20131;-57
2023/01/01 10:08:28;;;;;;;32.13;6.20;;;;;;;;;;5091237;28;20052;-57
2023/01/01 10:10:58;;;;;;;34.90;5.78;;;;;;;;;;5083075;28;20059;-57
2023/01/01 10:13:36;;;;;;;34.47;5.90;;;;;;;;;;5090684;28;20662;-58
2023/01/01 10:16:07;;;;;;;31.02;5.50;;;;;;;;;;5090674;28;20494;-58
2023/01/01 10:18:37;;;;;;;29.15;4.95;;;;;;;;;;5089466;28;20047;-58
2023/01/01 10:21:12;;;;;;;29.27;6.07;;;;;;;;;;5090138;28;20044;-58
2023/01/01 10:23:48;;;;;;;27.42;7.53;;;;;;;;;;5090396;28;20048;-58
2023/01/01 10:26:15;;;;;;;37.83;6.97;;;;;;;;;;5075805;28;20130;-57
2023/01/01 10:28:47;;;;;;;37.85;6.45;;;;;;;;;;5090235;28;20066;-58
2023/01/01 10:31:15;;;;;;;34.83;5.63;;;;;;;;;;5070535;28;20099;-58
2023/01/01 10:33:41;;;;;;;31.25;4.95;;;;;;;;;;5080216;28;20496;-58
2023/01/01 10:36:10;;;;;;;27.73;4.85;;;;;;;;;;5092705;28;20127;-58
2023/01/01 10:38:37;;;;;;;30.90;5.32;;;;;;;;;;5094651;28;20057;-57
2023/01/01 10:41:13;;;;;;;33.72;6.03;;;;;;;;;;5094030;28;20055;-57
2023/01/01 10:43:45;;;;;;;29.67;6.35;;;;;;;;;;5094466;28;20170;-57
2023/01/01 10:46:14;;;;;;;41.33;7.35;;;;;;;;;;5089027;28;20048;-58
2023/01/01 10:48:54;;;;;;;31.42;4.57;;;;;;;;;;5092462;28;20037;-58
2023/01/01 10:51:23;;;;;;;33.00;5.60;;;;;;;;;;5093323;28;20052;-58
2023/01/01 10:53:51;;;;;;;33.33;6.35;;;;;;;;;;5093697;28;20122;-58
2023/01/01 10:56:18;;;;;;;25.02;5.22;;;;;;;;;;5093071;28;20133;-58
2023/01/01 10:58:54;;;;;;;21.55;4.65;;;;;;;;;;5092916;28;20947;-58
2023/01/01 11:01:21;;;;;;;22.23;4.10;;;;;;;;;;5092626;28;20048;-58
2023/01/01 11:04:01;;;;;;;26.42;4.90;;;;;;;;;;5093265;28;20135;-58
2023/01/01 11:06:45;;;;;;;18.98;4.05;;;;;;;;;;5093846;28;20044;-58
2023/01/01 11:09:22;;;;;;;22.40;4.07;;;;;;;;;;5093828;28;20044;-58
2023/01/01 11:11:56;;;;;;;22.48;4.10;;;;;;;;;;5092716;28;20058;-58
2023/01/01 11:14:37;;;;;;;19.08;3.45;;;;;;;;;;5092567;28;20487;-58
2023/01/01 11:17:03;;;;;;;23.08;3.97;;;;;;;;;;5092985;28;20050;-58
2023/01/01 11:19:35;;;;;;;19.95;4.30;;;;;;;;;;5092766;28;20052;-58
2023/01/01 11:22:02;;;;;;;19.63;4.05;;;;;;;;;;5092487;28;20079;-58
2023/01/01 11:24:29;;;;;;;26.13;4.43;;;;;;;;;;5092699;28;20040;-58
2023/01/01 11:27:14;;;;;;;23.27;3.95;;;;;;;;;;5092133;28;20493;-59
2023/01/01 11:29:41;;;;;;;18.90;4.65;;;;;;;;;;5091506;28;20063;-57
2023/01/01 11:32:07;;;;;;;25.88;5.57;;;;;;;;;;5092272;28;20048;-58
2023/01/01 11:34:35;;;;;;;24.38;7.20;;;;;;;;;;5092626;28;20102;-58
2023/01/01 11:37:02;;;;;;;;;;;;;;;;;;5092857;28;20121;-58
2023/01/01 11:39:30;;;;;;;21.40;7.88;;;;;;;;;;5092785;28;19924;-58
2023/01/01 11:41:57;;;;;;;19.90;5.88;;;;;;;;;;5092671;28;20495;-57
2023/01/01 11:44:31;;;;;;;16.48;3.58;;;;;;;;;;5092114;28;20094;-57
2023/01/01 11:46:58;;;;;;;20.20;3.47;;;;;;;;;;5089745;28;20044;-58
2023/01/01 11:49:25;;;;;;;17.70;3.28;;;;;;;;;;5092584;28;20051;-58
2023/01/01 11:51:52;;;;;;;24.05;3.95;;;;;;;;;;5092628;28;20475;-58
2023/01/01 11:54:30;;;;;;;22.90;4.18;;;;;;;;;;5092390;28;20051;-58
2023/01/01 11:56:59;;;;;;;22.13;4.55;;;;;;;;;;5092607;28;20059;-58
2023/01/01 11:59:27;;;;;;;19.92;3.88;;;;;;;;;;5092888;28;20407;-58
2023/01/01 12:01:57;;;;;;;26.50;4.47;;;;;;;;;;5092691;28;20148;-58
2023/01/01 12:04:31;;;;;;;25.75;4.63;;;;;;;;;;5092369;28;20044;-58
2023/01/01 12:07:09;;;;;;;25.63;4.25;;;;;;;;;;5092764;28;20048;-58
2023/01/01 12:09:36;;;;;;;22.35;4.30;;;;;;;;;;5092395;28;20047;-58
2023/01/01 12:12:07;;;;;;;20.95;4.97;;;;;;;;;;5092267;28;20058;-58
2023/01/01 12:14:56;;;;;;;30.13;5.13;;;;;;;;;;5092330;28;20052;-58
2023/01/01 12:17:43;;;;;;;22.48;4.43;;;;;;;;;;5092354;28;20054;-58
2023/01/01 12:20:24;;;;;;;26.90;5.80;;;;;;;;;;5089883;28;20458;-58
2023/01/01 12:22:53;;;;;;;20.27;4.07;;;;;;;;;;5092124;28;20482;-58
2023/01/01 12:25:20;;;;;;;28.63;4.70;;;;;;;;;;5091805;28;20559;-58
2023/01/01 12:28:02;;;;;;;25.60;4.35;;;;;;;;;;5092286;28;20052;-58
2023/01/01 12:30:39;;;;;;;23.83;4.65;;;;;;;;;;5092076;28;20048;-58
2023/01/01 12:33:06;;;;;;;26.10;3.80;;;;;;;;;;5092293;28;20052;-58
2023/01/01 12:35:39;;;;;;;24.85;3.95;;;;;;;;;;5092244;28;20055;-58
2023/01/01 12:38:09;;;;;;;23.05;4.05;;;;;;;;;;5091507;28;20555;-57
2023/01/01 12:40:46;;;;;;;30.02;4.53;;;;;;;;;;5092010;28;20069;-58
2023/01/01 12:43:20;;;;;;;21.67;5.07;;;;;;;;;;5091886;28;20414;-58
2023/01/01 12:45:47;;;;;;;27.35;4.32;;;;;;;;;;5089994;28;20058;-58
2023/01/01 12:48:31;;;;;;;28.45;4.57;;;;;;;;;;5091607;28;20044;-58
2023/01/01 12:51:16;;;;;;;30.00;5.35;;;;;;;;;;5089997;28;20055;-58
2023/01/01 12:54:05;;;;;;;31.20;5.22;;;;;;;;;;5090557;28;20050;-59
2023/01/01 12:56:37;;;;;;;25.33;5.20;;;;;;;;;;5060710;28;20048;-58
2023/01/01 12:59:05;;;;;;;39.50;6.40;;;;;;;;;;5089991;28;20055;-58
2023/01/01 13:01:33;;;;;;;31.48;5.93;;;;;;;;;;5091298;28;20044;-58
2023/01/01 13:04:06;;;;;;;32.30;4.88;;;;;;;;;;5090600;28;20054;-58
2023/01/01 13:06:41;;;;;;;31.83;5.03;;;;;;;;;;5090955;28;20040;-58
2023/01/01 13:09:18;;;;;;;33.03;5.47;;;;;;;;;;5091789;28;20050;-58
2023/01/01 13:11:48;;;;;;;28.90;4.73;;;;;;;;;;5091935;28;20044;-58
2023/01/01 13:14:14;;;;;;;27.42;5.45;;;;;;;;;;5092058;28;20048;-58
2023/01/01 13:16:42;;;;;;;34.03;5.28;;;;;;;;;;5091699;28;20051;-58
2023/01/01 13:19:30;;;;;;;33.97;5.32;;;;;;;;;;5091989;28;20044;-58
2023/01/01 13:22:16;;;;;;;45.33;7.00;;;;;;;;;;5092038;28;20052;-58
2023/01/01 13:25:00;;;;;;;28.80;5.13;;;;;;;;;;5091609;28;20044;-58
2023/01/01 13:27:45;;;;;;;35.83;5.78;;;;;;;;;;5088756;28;20422;-58
2023/01/01 13:30:31;;;;;;;37.67;6.13;;;;;;;;;;5072189;28;20059;-58
2023/01/01 13:33:17;;;;;;;34.00;5.72;;;;;;;;;;5090172;28;20401;-57
2023/01/01 13:36:06;;;;;;;37.25;6.22;;;;;;;;;;5091060;28;20491;-58
2023/01/01 13:38:51;;;;;;;33.42;4.90;;;;;;;;;;5091269;28;20040;-58
2023/01/01 13:41:24;;;;;;;35.60;5.68;;;;;;;;;;5091259;28;20144;-57
2023/01/01 13:43:50;;;;;;;31.15;4.85;;;;;;;;;;5090924;28;20052;-57
2023/01/01 13:46:22;;;;;;;30.30;5.18;;;;;;;;;;5090947;28;20499;-57
2023/01/01 13:49:07;;;;;;;30.60;4.45;;;;;;;;;;5091342;28;20044;-58
2023/01/01 13:51:52;;;;;;;31.65;5.43;;;;;;;;;;5090991;28;20127;-58
2023/01/01 13:54:34;;;;;;;38.75;5.38;;;;;;;;;;5091142;28;20048;-58
2023/01/01 13:57:11;;;;;;;35.65;5.32;;;;;;;;;;5090865;28;20395;-58
2023/01/01 14:00:01;;;;;;;37.80;5.47;;;;;;;;;;5090850;28;20040;-57
2023/01/01 14:02:29;;;;;;;35.95;5.88;;;;;;;;;;5090997;28;20462;-57
2023/01/01 14:04:56;;;;;;;31.15;6.78;;;;;;;;;;5091045;28;20060;-58
2023/01/01 14:07:55;;;;;;;28.08;5.47;;;;;;;;;;5090913;28;20070;-57
2023/01/01 14:10:23;;;;;;;34.78;5.72;;;;;;;;;;5049116;28;20098;-58
2023/01/01 14:12:51;;;;;;;34.42;5.97;;;;;;;;;;5092615;28;20056;-58
2023/01/01 14:15:25;;;;;;;38.08;6.65;;;;;;;;;;5094628;28;20406;-58
2023/01/01 14:17:53;;;;;;;30.05;4.45;;;;;;;;;;5094194;28;20506;-58
2023/01/01 14:20:21;;;;;;;37.17;6.78;;;;;;;;;;5094369;28;20413;-58
2023/01/01 14:22:48;;;;;;;36.28;5.32;;;;;;;;;;5094184;28;20055;-58
2023/01/01 14:25:18;;;;;;;34.47;5.60;;;;;;;;;;5091820;28;20566;-58
2023/01/01 14:27:44;;;;;;;34.65;5.60;;;;;;;;;;5094193;28;20048;-58
2023/01/01 14:30:17;;;;;;;36.95;11.07;;;;;;;;;;5094064;28;20044;-58
2023/01/01 14:32:44;;;;;;;66.97;46.70;;;;;;;;;;5093799;28;20130;-58
2023/01/01 14:35:13;;;;;;;42.40;19.05;;;;;;;;;;5093878;28;20051;-58
2023/01/01 14:37:39;;;;;;;42.40;18.42;;;;;;;;;;5093709;28;20079;-57
2023/01/01 14:40:07;;;;;;;44.25;18.30;;;;;;;;;;5093925;28;20463;-58
2023/01/01 14:42:35;;;;;;;34.30;13.90;;;;;;;;;;5093929;28;20127;-58
2023/01/01 14:45:01;;;;;;;54.60;20.58;;;;;;;;;;5093960;28;20050;-58
2023/01/01 14:47:30;;;;;;;42.05;17.90;;;;;;;;;;5093878;28;20505;-57
2023/01/01 14:50:00;;;;;;;57.03;31.65;;;;;;;;;;5094222;28;20127;-57
2023/01/01 14:52:30;;;;;;;52.72;39.92;;;;;;;;;;5094228;28;20070;-58